sensor_id;sensor_type;location;lat;lon;timestamp;temperature;humidity
30158;DHT22;21203;-33.912;151.178;2023-04-03T00:01:55;23.70;84.10
30158;DHT22;21203;-33.912;151.178;2023-04-03T00:04:26;23.80;84.30
30158;DHT22;21203;-33.912;151.178;2023-04-03T00:06:56;23.70;83.80
30158;DHT22;21203;-33.912;151.178;2023-04-03T00:12:17;23.40;85.80
30158;DHT22;21203;-33.912;151.178;2023-04-03T00:14:53;23.30;87.00
30158;DHT22;21203;-33.912;151.178;2023-04-03T00:17:20;23.30;87.10
30158;DHT22;21203;-33.912;151.178;2023-04-03T00:19:51;23.40;87.20
30158;DHT22;21203;-33.912;151.178;2023-04-03T00:22:21;23.40;87.20
30158;DHT22;21203;-33.912;151.178;2023-04-03T00:24:52;23.40;87.80
30158;DHT22;21203;-33.912;151.178;2023-04-03T00:27:22;23.40;87.50
30158;DHT22;21203;-33.912;151.178;2023-04-03T00:29:53;23.50;87.90
30158;DHT22;21203;-33.912;151.178;2023-04-03T00:32:33;23.60;88.00
30158;DHT22;21203;-33.912;151.178;2023-04-03T00:35:01;23.70;87.60
30158;DHT22;21203;-33.912;151.178;2023-04-03T00:37:32;23.70;87.40
30158;DHT22;21203;-33.912;151.178;2023-04-03T00:40:03;23.70;87.20
30158;DHT22;21203;-33.912;151.178;2023-04-03T00:42:35;23.60;87.30
30158;DHT22;21203;-33.912;151.178;2023-04-03T00:47:39;23.80;87.10
30158;DHT22;21203;-33.912;151.178;2023-04-03T00:50:10;24.00;85.90
30158;DHT22;21203;-33.912;151.178;2023-04-03T00:52:40;24.10;84.90
30158;DHT22;21203;-33.912;151.178;2023-04-03T00:55:11;24.10;85.30
30158;DHT22;21203;-33.912;151.178;2023-04-03T00:57:43;24.10;84.90
30158;DHT22;21203;-33.912;151.178;2023-04-03T01:00:15;24.40;84.60
30158;DHT22;21203;-33.912;151.178;2023-04-03T01:02:47;24.60;83.40
30158;DHT22;21203;-33.912;151.178;2023-04-03T01:05:18;24.80;82.50
30158;DHT22;21203;-33.912;151.178;2023-04-03T01:07:50;24.80;82.10
30158;DHT22;21203;-33.912;151.178;2023-04-03T01:10:21;24.80;81.80
30158;DHT22;21203;-33.912;151.178;2023-04-03T01:12:51;24.90;81.60
30158;DHT22;21203;-33.912;151.178;2023-04-03T01:15:25;24.90;81.00
30158;DHT22;21203;-33.912;151.178;2023-04-03T01:17:57;25.00;81.30
30158;DHT22;21203;-33.912;151.178;2023-04-03T01:20:44;25.00;81.10
30158;DHT22;21203;-33.912;151.178;2023-04-03T01:23:37;25.00;81.00
30158;DHT22;21203;-33.912;151.178;2023-04-03T01:25:56;25.00;80.90
30158;DHT22;21203;-33.912;151.178;2023-04-03T01:33:35;25.10;80.50
30158;DHT22;21203;-33.912;151.178;2023-04-03T01:36:08;25.10;80.30
30158;DHT22;21203;-33.912;151.178;2023-04-03T01:38:38;25.10;80.10
30158;DHT22;21203;-33.912;151.178;2023-04-03T01:41:09;25.20;80.50
30158;DHT22;21203;-33.912;151.178;2023-04-03T01:43:39;25.20;80.10
30158;DHT22;21203;-33.912;151.178;2023-04-03T01:46:15;25.20;80.00
30158;DHT22;21203;-33.912;151.178;2023-04-03T01:48:46;25.20;79.80
30158;DHT22;21203;-33.912;151.178;2023-04-03T01:51:13;25.30;80.00
30158;DHT22;21203;-33.912;151.178;2023-04-03T01:53:43;25.30;79.70
30158;DHT22;21203;-33.912;151.178;2023-04-03T01:56:14;25.40;79.80
30158;DHT22;21203;-33.912;151.178;2023-04-03T01:58:44;25.40;79.30
30158;DHT22;21203;-33.912;151.178;2023-04-03T02:01:21;25.30;79.80
30158;DHT22;21203;-33.912;151.178;2023-04-03T02:03:48;25.30;80.00
30158;DHT22;21203;-33.912;151.178;2023-04-03T02:06:18;25.20;79.90
30158;DHT22;21203;-33.912;151.178;2023-04-03T02:09:08;25.20;80.20
30158;DHT22;21203;-33.912;151.178;2023-04-03T02:11:40;25.30;79.90
30158;DHT22;21203;-33.912;151.178;2023-04-03T02:14:10;25.40;79.60
30158;DHT22;21203;-33.912;151.178;2023-04-03T02:17:00;25.40;79.10
30158;DHT22;21203;-33.912;151.178;2023-04-03T02:22:22;25.40;79.20
30158;DHT22;21203;-33.912;151.178;2023-04-03T02:24:52;25.50;79.00
30158;DHT22;21203;-33.912;151.178;2023-04-03T02:27:23;25.60;78.60
30158;DHT22;21203;-33.912;151.178;2023-04-03T02:29:54;25.60;78.50
30158;DHT22;21203;-33.912;151.178;2023-04-03T02:32:25;25.60;78.60
30158;DHT22;21203;-33.912;151.178;2023-04-03T02:34:55;25.60;78.50
30158;DHT22;21203;-33.912;151.178;2023-04-03T02:37:26;25.70;78.20
30158;DHT22;21203;-33.912;151.178;2023-04-03T02:40:11;25.80;77.50
30158;DHT22;21203;-33.912;151.178;2023-04-03T02:42:28;26.00;77.70
30158;DHT22;21203;-33.912;151.178;2023-04-03T02:45:02;26.10;77.00
30158;DHT22;21203;-33.912;151.178;2023-04-03T02:47:32;26.30;76.10
30158;DHT22;21203;-33.912;151.178;2023-04-03T02:50:03;26.30;75.50
30158;DHT22;21203;-33.912;151.178;2023-04-03T02:52:34;26.10;76.10
30158;DHT22;21203;-33.912;151.178;2023-04-03T02:55:12;26.10;76.90
30158;DHT22;21203;-33.912;151.178;2023-04-03T02:57:36;26.30;76.00
30158;DHT22;21203;-33.912;151.178;2023-04-03T03:00:08;26.30;75.30
30158;DHT22;21203;-33.912;151.178;2023-04-03T03:02:40;26.20;76.80
30158;DHT22;21203;-33.912;151.178;2023-04-03T03:05:10;26.00;76.50
30158;DHT22;21203;-33.912;151.178;2023-04-03T03:07:41;25.70;77.90
30158;DHT22;21203;-33.912;151.178;2023-04-03T03:12:46;25.70;78.20
30158;DHT22;21203;-33.912;151.178;2023-04-03T03:15:16;26.00;77.90
30158;DHT22;21203;-33.912;151.178;2023-04-03T03:17:47;26.30;77.40
30158;DHT22;21203;-33.912;151.178;2023-04-03T03:20:18;26.60;76.40
30158;DHT22;21203;-33.912;151.178;2023-04-03T03:22:49;26.70;76.10
30158;DHT22;21203;-33.912;151.178;2023-04-03T03:25:19;26.90;75.10
30158;DHT22;21203;-33.912;151.178;2023-04-03T03:27:49;26.70;76.40
30158;DHT22;21203;-33.912;151.178;2023-04-03T03:30:20;26.80;75.50
30158;DHT22;21203;-33.912;151.178;2023-04-03T03:32:51;26.60;75.40
30158;DHT22;21203;-33.912;151.178;2023-04-03T03:35:24;26.30;76.70
30158;DHT22;21203;-33.912;151.178;2023-04-03T03:37:55;26.00;77.80
30158;DHT22;21203;-33.912;151.178;2023-04-03T03:40:25;25.80;78.70
30158;DHT22;21203;-33.912;151.178;2023-04-03T03:42:57;25.60;79.10
30158;DHT22;21203;-33.912;151.178;2023-04-03T03:45:34;25.50;79.70
30158;DHT22;21203;-33.912;151.178;2023-04-03T03:48:01;25.30;80.20
30158;DHT22;21203;-33.912;151.178;2023-04-03T03:50:32;25.30;80.90
30158;DHT22;21203;-33.912;151.178;2023-04-03T03:53:03;25.20;81.20
30158;DHT22;21203;-33.912;151.178;2023-04-03T03:55:33;25.20;81.50
30158;DHT22;21203;-33.912;151.178;2023-04-03T03:58:04;25.20;81.20
30158;DHT22;21203;-33.912;151.178;2023-04-03T04:00:34;25.20;81.40
30158;DHT22;21203;-33.912;151.178;2023-04-03T04:03:04;25.30;81.20
30158;DHT22;21203;-33.912;151.178;2023-04-03T04:05:35;25.20;81.50
30158;DHT22;21203;-33.912;151.178;2023-04-03T04:08:05;25.20;81.50
30158;DHT22;21203;-33.912;151.178;2023-04-03T04:10:36;25.20;81.60
30158;DHT22;21203;-33.912;151.178;2023-04-03T04:13:07;25.10;81.20
30158;DHT22;21203;-33.912;151.178;2023-04-03T04:15:38;25.00;81.40
30158;DHT22;21203;-33.912;151.178;2023-04-03T04:18:08;25.00;81.30
30158;DHT22;21203;-33.912;151.178;2023-04-03T04:20:39;25.10;81.00
30158;DHT22;21203;-33.912;151.178;2023-04-03T04:23:10;25.10;80.20
30158;DHT22;21203;-33.912;151.178;2023-04-03T04:25:40;25.10;80.30
30158;DHT22;21203;-33.912;151.178;2023-04-03T04:28:11;25.10;79.40
30158;DHT22;21203;-33.912;151.178;2023-04-03T04:30:41;25.20;79.20
30158;DHT22;21203;-33.912;151.178;2023-04-03T04:33:11;25.20;78.80
30158;DHT22;21203;-33.912;151.178;2023-04-03T04:35:43;25.30;79.60
30158;DHT22;21203;-33.912;151.178;2023-04-03T04:38:14;25.30;79.40
30158;DHT22;21203;-33.912;151.178;2023-04-03T04:40:44;25.20;79.40
30158;DHT22;21203;-33.912;151.178;2023-04-03T04:43:16;25.30;79.70
30158;DHT22;21203;-33.912;151.178;2023-04-03T04:45:46;25.20;79.60
30158;DHT22;21203;-33.912;151.178;2023-04-03T04:48:17;25.30;79.90
30158;DHT22;21203;-33.912;151.178;2023-04-03T04:50:47;25.30;80.50
30158;DHT22;21203;-33.912;151.178;2023-04-03T04:53:18;25.40;80.50
30158;DHT22;21203;-33.912;151.178;2023-04-03T04:55:48;25.30;80.40
30158;DHT22;21203;-33.912;151.178;2023-04-03T04:58:19;25.30;80.60
30158;DHT22;21203;-33.912;151.178;2023-04-03T05:00:49;25.30;80.90
30158;DHT22;21203;-33.912;151.178;2023-04-03T05:03:20;25.30;80.90
30158;DHT22;21203;-33.912;151.178;2023-04-03T05:05:50;25.30;81.10
30158;DHT22;21203;-33.912;151.178;2023-04-03T05:08:22;25.30;81.70
30158;DHT22;21203;-33.912;151.178;2023-04-03T05:10:52;25.30;81.50
30158;DHT22;21203;-33.912;151.178;2023-04-03T05:13:23;25.30;81.50
30158;DHT22;21203;-33.912;151.178;2023-04-03T05:15:53;25.30;82.00
30158;DHT22;21203;-33.912;151.178;2023-04-03T05:18:24;25.30;81.90
30158;DHT22;21203;-33.912;151.178;2023-04-03T05:20:54;25.30;82.10
30158;DHT22;21203;-33.912;151.178;2023-04-03T05:23:25;25.30;82.10
30158;DHT22;21203;-33.912;151.178;2023-04-03T05:25:56;25.30;82.30
30158;DHT22;21203;-33.912;151.178;2023-04-03T05:28:26;25.30;81.90
30158;DHT22;21203;-33.912;151.178;2023-04-03T05:30:57;25.30;81.70
30158;DHT22;21203;-33.912;151.178;2023-04-03T05:33:28;25.20;81.40
30158;DHT22;21203;-33.912;151.178;2023-04-03T05:36:01;25.30;80.60
30158;DHT22;21203;-33.912;151.178;2023-04-03T05:38:36;25.30;80.90
30158;DHT22;21203;-33.912;151.178;2023-04-03T05:41:02;25.30;80.90
30158;DHT22;21203;-33.912;151.178;2023-04-03T05:43:37;25.30;80.50
30158;DHT22;21203;-33.912;151.178;2023-04-03T05:46:26;25.30;80.30
30158;DHT22;21203;-33.912;151.178;2023-04-03T05:48:37;25.30;79.60
30158;DHT22;21203;-33.912;151.178;2023-04-03T05:51:09;25.30;79.00
30158;DHT22;21203;-33.912;151.178;2023-04-03T05:53:39;25.30;78.40
30158;DHT22;21203;-33.912;151.178;2023-04-03T05:56:10;25.40;78.80
30158;DHT22;21203;-33.912;151.178;2023-04-03T05:58:41;25.30;78.40
30158;DHT22;21203;-33.912;151.178;2023-04-03T06:01:11;25.30;78.80
30158;DHT22;21203;-33.912;151.178;2023-04-03T06:03:42;25.20;78.80
30158;DHT22;21203;-33.912;151.178;2023-04-03T06:06:13;25.20;77.50
30158;DHT22;21203;-33.912;151.178;2023-04-03T06:08:44;25.20;77.80
30158;DHT22;21203;-33.912;151.178;2023-04-03T06:11:14;25.20;78.00
30158;DHT22;21203;-33.912;151.178;2023-04-03T06:13:45;25.20;77.60
30158;DHT22;21203;-33.912;151.178;2023-04-03T06:16:18;25.20;77.90
30158;DHT22;21203;-33.912;151.178;2023-04-03T06:18:52;25.20;77.60
30158;DHT22;21203;-33.912;151.178;2023-04-03T06:21:22;25.20;77.30
30158;DHT22;21203;-33.912;151.178;2023-04-03T06:23:53;25.20;77.70
30158;DHT22;21203;-33.912;151.178;2023-04-03T06:26:24;25.20;77.70
30158;DHT22;21203;-33.912;151.178;2023-04-03T06:28:54;25.10;76.80
30158;DHT22;21203;-33.912;151.178;2023-04-03T06:31:25;25.10;76.70
30158;DHT22;21203;-33.912;151.178;2023-04-03T06:33:55;25.10;76.40
30158;DHT22;21203;-33.912;151.178;2023-04-03T06:36:25;25.10;76.50
30158;DHT22;21203;-33.912;151.178;2023-04-03T06:38:55;25.10;77.00
30158;DHT22;21203;-33.912;151.178;2023-04-03T06:41:26;25.10;77.60
30158;DHT22;21203;-33.912;151.178;2023-04-03T06:43:56;25.10;77.60
30158;DHT22;21203;-33.912;151.178;2023-04-03T06:46:27;25.10;77.30
30158;DHT22;21203;-33.912;151.178;2023-04-03T06:48:58;25.10;77.30
30158;DHT22;21203;-33.912;151.178;2023-04-03T06:51:29;25.10;77.60
30158;DHT22;21203;-33.912;151.178;2023-04-03T06:54:00;25.10;77.30
30158;DHT22;21203;-33.912;151.178;2023-04-03T06:56:30;25.10;77.90
30158;DHT22;21203;-33.912;151.178;2023-04-03T06:59:00;25.10;77.40
30158;DHT22;21203;-33.912;151.178;2023-04-03T07:01:31;25.00;77.90
30158;DHT22;21203;-33.912;151.178;2023-04-03T07:04:02;25.00;77.60
30158;DHT22;21203;-33.912;151.178;2023-04-03T07:06:32;25.00;77.80
30158;DHT22;21203;-33.912;151.178;2023-04-03T07:09:02;25.00;78.60
30158;DHT22;21203;-33.912;151.178;2023-04-03T07:11:33;25.00;77.90
30158;DHT22;21203;-33.912;151.178;2023-04-03T07:14:03;25.00;77.90
30158;DHT22;21203;-33.912;151.178;2023-04-03T07:16:34;25.00;78.00
30158;DHT22;21203;-33.912;151.178;2023-04-03T07:19:05;25.00;78.50
30158;DHT22;21203;-33.912;151.178;2023-04-03T07:21:36;25.00;78.30
30158;DHT22;21203;-33.912;151.178;2023-04-03T07:24:07;25.00;78.30
30158;DHT22;21203;-33.912;151.178;2023-04-03T07:26:38;24.90;78.40
30158;DHT22;21203;-33.912;151.178;2023-04-03T07:29:08;24.90;78.60
30158;DHT22;21203;-33.912;151.178;2023-04-03T07:31:39;24.90;78.70
30158;DHT22;21203;-33.912;151.178;2023-04-03T07:34:10;24.90;78.80
30158;DHT22;21203;-33.912;151.178;2023-04-03T07:36:41;25.00;78.90
30158;DHT22;21203;-33.912;151.178;2023-04-03T07:39:11;24.90;79.10
30158;DHT22;21203;-33.912;151.178;2023-04-03T07:41:42;24.90;79.10
30158;DHT22;21203;-33.912;151.178;2023-04-03T07:44:12;24.80;79.10
30158;DHT22;21203;-33.912;151.178;2023-04-03T07:46:42;24.80;79.20
30158;DHT22;21203;-33.912;151.178;2023-04-03T07:49:13;24.80;79.30
30158;DHT22;21203;-33.912;151.178;2023-04-03T07:51:44;24.80;79.60
30158;DHT22;21203;-33.912;151.178;2023-04-03T07:54:15;24.80;79.60
30158;DHT22;21203;-33.912;151.178;2023-04-03T07:56:46;24.80;79.60
30158;DHT22;21203;-33.912;151.178;2023-04-03T07:59:16;24.70;79.90
30158;DHT22;21203;-33.912;151.178;2023-04-03T08:01:47;24.70;80.10
30158;DHT22;21203;-33.912;151.178;2023-04-03T08:04:17;24.70;80.10
30158;DHT22;21203;-33.912;151.178;2023-04-03T08:06:48;24.70;80.10
30158;DHT22;21203;-33.912;151.178;2023-04-03T08:09:18;24.70;79.90
30158;DHT22;21203;-33.912;151.178;2023-04-03T08:11:48;24.60;80.50
30158;DHT22;21203;-33.912;151.178;2023-04-03T08:14:20;24.60;80.10
30158;DHT22;21203;-33.912;151.178;2023-04-03T08:16:51;24.60;80.10
30158;DHT22;21203;-33.912;151.178;2023-04-03T08:19:21;24.60;79.80
30158;DHT22;21203;-33.912;151.178;2023-04-03T08:21:52;24.60;80.30
30158;DHT22;21203;-33.912;151.178;2023-04-03T08:24:22;24.60;79.90
30158;DHT22;21203;-33.912;151.178;2023-04-03T08:26:52;24.60;79.90
30158;DHT22;21203;-33.912;151.178;2023-04-03T08:29:23;24.60;80.00
30158;DHT22;21203;-33.912;151.178;2023-04-03T08:31:53;24.60;80.10
30158;DHT22;21203;-33.912;151.178;2023-04-03T08:34:24;24.60;80.40
30158;DHT22;21203;-33.912;151.178;2023-04-03T08:36:54;24.60;80.50
30158;DHT22;21203;-33.912;151.178;2023-04-03T08:39:25;24.60;80.50
30158;DHT22;21203;-33.912;151.178;2023-04-03T08:41:57;24.60;80.20
30158;DHT22;21203;-33.912;151.178;2023-04-03T08:44:34;24.60;80.10
30158;DHT22;21203;-33.912;151.178;2023-04-03T08:47:18;24.60;79.90
30158;DHT22;21203;-33.912;151.178;2023-04-03T08:49:48;24.60;79.80
30158;DHT22;21203;-33.912;151.178;2023-04-03T08:52:34;24.60;79.80
30158;DHT22;21203;-33.912;151.178;2023-04-03T08:54:57;24.60;79.10
30158;DHT22;21203;-33.912;151.178;2023-04-03T08:57:40;24.60;79.80
30158;DHT22;21203;-33.912;151.178;2023-04-03T09:00:19;24.60;79.90
30158;DHT22;21203;-33.912;151.178;2023-04-03T09:02:52;24.60;79.80
30158;DHT22;21203;-33.912;151.178;2023-04-03T09:10:59;24.60;79.40
30158;DHT22;21203;-33.912;151.178;2023-04-03T09:13:39;24.60;79.50
30158;DHT22;21203;-33.912;151.178;2023-04-03T09:16:17;24.60;79.50
30158;DHT22;21203;-33.912;151.178;2023-04-03T09:18:44;24.50;78.50
30158;DHT22;21203;-33.912;151.178;2023-04-03T09:21:50;24.60;78.60
30158;DHT22;21203;-33.912;151.178;2023-04-03T09:23:57;24.50;78.00
30158;DHT22;21203;-33.912;151.178;2023-04-03T09:26:44;24.50;77.90
30158;DHT22;21203;-33.912;151.178;2023-04-03T09:29:08;24.50;78.30
30158;DHT22;21203;-33.912;151.178;2023-04-03T09:31:40;24.60;78.20
30158;DHT22;21203;-33.912;151.178;2023-04-03T09:34:23;24.60;78.30
30158;DHT22;21203;-33.912;151.178;2023-04-03T09:39:53;24.50;77.90
30158;DHT22;21203;-33.912;151.178;2023-04-03T09:42:26;24.50;78.20
30158;DHT22;21203;-33.912;151.178;2023-04-03T09:45:03;24.50;78.20
30158;DHT22;21203;-33.912;151.178;2023-04-03T09:47:36;24.50;77.80
30158;DHT22;21203;-33.912;151.178;2023-04-03T09:53:22;24.50;77.30
30158;DHT22;21203;-33.912;151.178;2023-04-03T09:55:44;24.50;77.30
30158;DHT22;21203;-33.912;151.178;2023-04-03T09:58:37;24.40;76.60
30158;DHT22;21203;-33.912;151.178;2023-04-03T10:01:00;24.50;76.40
30158;DHT22;21203;-33.912;151.178;2023-04-03T10:03:36;24.40;75.90
30158;DHT22;21203;-33.912;151.178;2023-04-03T10:06:04;24.40;75.90
30158;DHT22;21203;-33.912;151.178;2023-04-03T10:08:36;24.40;76.00
30158;DHT22;21203;-33.912;151.178;2023-04-03T10:11:15;24.50;76.50
30158;DHT22;21203;-33.912;151.178;2023-04-03T10:13:59;24.50;76.60
30158;DHT22;21203;-33.912;151.178;2023-04-03T10:16:48;24.50;76.60
30158;DHT22;21203;-33.912;151.178;2023-04-03T10:30:37;24.50;76.80
30158;DHT22;21203;-33.912;151.178;2023-04-03T10:39:24;24.40;77.20
30158;DHT22;21203;-33.912;151.178;2023-04-03T10:42:15;24.40;77.00
30158;DHT22;21203;-33.912;151.178;2023-04-03T10:48:07;24.40;76.70
30158;DHT22;21203;-33.912;151.178;2023-04-03T10:51:06;24.40;76.90
30158;DHT22;21203;-33.912;151.178;2023-04-03T11:01:59;24.40;77.60
30158;DHT22;21203;-33.912;151.178;2023-04-03T11:04:30;24.30;77.30
30158;DHT22;21203;-33.912;151.178;2023-04-03T11:08:07;24.40;77.40
30158;DHT22;21203;-33.912;151.178;2023-04-03T11:09:46;24.30;77.10
30158;DHT22;21203;-33.912;151.178;2023-04-03T11:12:36;24.30;78.00
30158;DHT22;21203;-33.912;151.178;2023-04-03T11:14:59;24.40;78.30
30158;DHT22;21203;-33.912;151.178;2023-04-03T11:17:35;24.30;78.30
30158;DHT22;21203;-33.912;151.178;2023-04-03T11:22:51;24.30;78.30
30158;DHT22;21203;-33.912;151.178;2023-04-03T11:25:26;24.30;77.70
30158;DHT22;21203;-33.912;151.178;2023-04-03T11:27:59;24.30;77.40
30158;DHT22;21203;-33.912;151.178;2023-04-03T11:36:17;24.20;77.00
30158;DHT22;21203;-33.912;151.178;2023-04-03T11:38:47;24.10;77.00
30158;DHT22;21203;-33.912;151.178;2023-04-03T11:41:25;24.20;76.80
30158;DHT22;21203;-33.912;151.178;2023-04-03T11:44:06;24.20;76.80
30158;DHT22;21203;-33.912;151.178;2023-04-03T11:46:55;24.10;76.90
30158;DHT22;21203;-33.912;151.178;2023-04-03T11:58:04;24.10;77.40
30158;DHT22;21203;-33.912;151.178;2023-04-03T12:11:21;24.10;78.20
30158;DHT22;21203;-33.912;151.178;2023-04-03T12:19:40;24.10;78.70
30158;DHT22;21203;-33.912;151.178;2023-04-03T12:22:18;24.10;78.70
30158;DHT22;21203;-33.912;151.178;2023-04-03T12:24:42;24.10;78.90
30158;DHT22;21203;-33.912;151.178;2023-04-03T12:27:25;24.10;78.80
30158;DHT22;21203;-33.912;151.178;2023-04-03T12:30:11;24.10;78.90
30158;DHT22;21203;-33.912;151.178;2023-04-03T12:33:00;24.10;79.00
30158;DHT22;21203;-33.912;151.178;2023-04-03T12:38:33;24.10;79.10
30158;DHT22;21203;-33.912;151.178;2023-04-03T12:41:22;24.00;79.20
30158;DHT22;21203;-33.912;151.178;2023-04-03T12:46:52;24.00;79.30
30158;DHT22;21203;-33.912;151.178;2023-04-03T12:49:41;24.00;79.50
30158;DHT22;21203;-33.912;151.178;2023-04-03T12:57:57;24.00;79.80
30158;DHT22;21203;-33.912;151.178;2023-04-03T13:00:34;24.00;79.80
30158;DHT22;21203;-33.912;151.178;2023-04-03T13:03:04;24.00;80.10
30158;DHT22;21203;-33.912;151.178;2023-04-03T13:05:36;24.00;80.20
30158;DHT22;21203;-33.912;151.178;2023-04-03T13:08:10;24.00;80.10
30158;DHT22;21203;-33.912;151.178;2023-04-03T13:11:02;24.00;80.10
30158;DHT22;21203;-33.912;151.178;2023-04-03T13:13:32;24.00;80.20
30158;DHT22;21203;-33.912;151.178;2023-04-03T13:16:10;24.00;80.20
30158;DHT22;21203;-33.912;151.178;2023-04-03T13:18:42;23.90;79.60
30158;DHT22;21203;-33.912;151.178;2023-04-03T13:21:17;23.90;80.00
30158;DHT22;21203;-33.912;151.178;2023-04-03T13:23:48;23.90;80.10
30158;DHT22;21203;-33.912;151.178;2023-04-03T13:26:20;23.90;79.90
30158;DHT22;21203;-33.912;151.178;2023-04-03T13:29:00;24.00;80.10
30158;DHT22;21203;-33.912;151.178;2023-04-03T13:31:23;23.90;80.10
30158;DHT22;21203;-33.912;151.178;2023-04-03T13:34:10;23.90;80.10
30158;DHT22;21203;-33.912;151.178;2023-04-03T13:36:39;23.90;80.10
30158;DHT22;21203;-33.912;151.178;2023-04-03T13:41:47;23.90;80.40
30158;DHT22;21203;-33.912;151.178;2023-04-03T13:46:56;23.90;80.40
30158;DHT22;21203;-33.912;151.178;2023-04-03T13:51:59;23.90;80.40
30158;DHT22;21203;-33.912;151.178;2023-04-03T13:54:35;23.90;80.40
30158;DHT22;21203;-33.912;151.178;2023-04-03T13:57:11;23.90;80.40
30158;DHT22;21203;-33.912;151.178;2023-04-03T13:59:42;23.90;80.40
30158;DHT22;21203;-33.912;151.178;2023-04-03T14:02:21;23.90;80.30
30158;DHT22;21203;-33.912;151.178;2023-04-03T14:04:53;23.90;80.20
30158;DHT22;21203;-33.912;151.178;2023-04-03T14:07:24;23.90;80.30
30158;DHT22;21203;-33.912;151.178;2023-04-03T14:09:56;23.80;80.00
30158;DHT22;21203;-33.912;151.178;2023-04-03T14:12:33;23.80;80.30
30158;DHT22;21203;-33.912;151.178;2023-04-03T14:15:14;23.80;80.40
30158;DHT22;21203;-33.912;151.178;2023-04-03T14:17:33;23.80;80.20
30158;DHT22;21203;-33.912;151.178;2023-04-03T14:20:05;23.80;80.30
30158;DHT22;21203;-33.912;151.178;2023-04-03T14:22:35;23.80;80.20
30158;DHT22;21203;-33.912;151.178;2023-04-03T14:25:06;23.70;80.40
30158;DHT22;21203;-33.912;151.178;2023-04-03T14:27:39;23.70;80.40
30158;DHT22;21203;-33.912;151.178;2023-04-03T14:30:18;23.70;80.60
30158;DHT22;21203;-33.912;151.178;2023-04-03T14:32:45;23.60;80.80
30158;DHT22;21203;-33.912;151.178;2023-04-03T14:35:16;23.60;80.80
30158;DHT22;21203;-33.912;151.178;2023-04-03T14:37:47;23.60;81.00
30158;DHT22;21203;-33.912;151.178;2023-04-03T14:40:20;23.60;81.00
30158;DHT22;21203;-33.912;151.178;2023-04-03T14:42:50;23.60;80.90
30158;DHT22;21203;-33.912;151.178;2023-04-03T14:45:22;23.60;80.80
30158;DHT22;21203;-33.912;151.178;2023-04-03T14:47:54;23.60;80.90
30158;DHT22;21203;-33.912;151.178;2023-04-03T14:50:26;23.60;80.80
30158;DHT22;21203;-33.912;151.178;2023-04-03T14:52:58;23.60;80.90
30158;DHT22;21203;-33.912;151.178;2023-04-03T14:55:29;23.60;80.70
30158;DHT22;21203;-33.912;151.178;2023-04-03T14:58:00;23.50;80.50
30158;DHT22;21203;-33.912;151.178;2023-04-03T15:00:29;23.50;80.80
30158;DHT22;21203;-33.912;151.178;2023-04-03T15:03:01;23.50;80.50
30158;DHT22;21203;-33.912;151.178;2023-04-03T15:05:31;23.50;80.70
30158;DHT22;21203;-33.912;151.178;2023-04-03T15:08:02;23.40;80.70
30158;DHT22;21203;-33.912;151.178;2023-04-03T15:10:32;23.40;80.90
30158;DHT22;21203;-33.912;151.178;2023-04-03T15:13:06;23.40;80.60
30158;DHT22;21203;-33.912;151.178;2023-04-03T15:15:38;23.40;81.00
30158;DHT22;21203;-33.912;151.178;2023-04-03T15:18:10;23.30;80.80
30158;DHT22;21203;-33.912;151.178;2023-04-03T15:20:41;23.40;81.10
30158;DHT22;21203;-33.912;151.178;2023-04-03T15:23:15;23.40;81.10
30158;DHT22;21203;-33.912;151.178;2023-04-03T15:25:47;23.40;80.90
30158;DHT22;21203;-33.912;151.178;2023-04-03T15:28:37;23.30;80.80
30158;DHT22;21203;-33.912;151.178;2023-04-03T15:31:04;23.30;81.00
30158;DHT22;21203;-33.912;151.178;2023-04-03T15:33:35;23.40;81.20
30158;DHT22;21203;-33.912;151.178;2023-04-03T15:36:05;23.30;80.90
30158;DHT22;21203;-33.912;151.178;2023-04-03T15:38:36;23.30;81.20
30158;DHT22;21203;-33.912;151.178;2023-04-03T15:41:07;23.30;81.20
30158;DHT22;21203;-33.912;151.178;2023-04-03T15:43:37;23.30;81.10
30158;DHT22;21203;-33.912;151.178;2023-04-03T15:46:09;23.30;81.20
30158;DHT22;21203;-33.912;151.178;2023-04-03T15:48:39;23.30;81.40
30158;DHT22;21203;-33.912;151.178;2023-04-03T15:51:11;23.30;81.30
30158;DHT22;21203;-33.912;151.178;2023-04-03T15:53:43;23.30;81.30
30158;DHT22;21203;-33.912;151.178;2023-04-03T15:56:14;23.30;81.50
30158;DHT22;21203;-33.912;151.178;2023-04-03T15:58:44;23.30;81.60
30158;DHT22;21203;-33.912;151.178;2023-04-03T16:01:15;23.30;81.80
30158;DHT22;21203;-33.912;151.178;2023-04-03T16:03:46;23.30;81.40
30158;DHT22;21203;-33.912;151.178;2023-04-03T16:06:18;23.30;81.70
30158;DHT22;21203;-33.912;151.178;2023-04-03T16:08:49;23.30;81.70
30158;DHT22;21203;-33.912;151.178;2023-04-03T16:11:20;23.20;81.60
30158;DHT22;21203;-33.912;151.178;2023-04-03T16:13:50;23.20;81.60
30158;DHT22;21203;-33.912;151.178;2023-04-03T16:16:21;23.20;82.30
30158;DHT22;21203;-33.912;151.178;2023-04-03T16:18:52;23.20;81.70
30158;DHT22;21203;-33.912;151.178;2023-04-03T16:21:23;23.20;81.60
30158;DHT22;21203;-33.912;151.178;2023-04-03T16:23:54;23.20;81.80
30158;DHT22;21203;-33.912;151.178;2023-04-03T16:26:24;23.10;81.90
30158;DHT22;21203;-33.912;151.178;2023-04-03T16:28:55;23.10;81.70
30158;DHT22;21203;-33.912;151.178;2023-04-03T16:31:27;23.10;81.50
30158;DHT22;21203;-33.912;151.178;2023-04-03T16:33:59;23.10;81.60
30158;DHT22;21203;-33.912;151.178;2023-04-03T16:36:30;23.10;81.80
30158;DHT22;21203;-33.912;151.178;2023-04-03T16:39:00;23.10;82.10
30158;DHT22;21203;-33.912;151.178;2023-04-03T16:41:31;23.10;81.80
30158;DHT22;21203;-33.912;151.178;2023-04-03T16:44:01;23.10;81.90
30158;DHT22;21203;-33.912;151.178;2023-04-03T16:46:31;23.10;82.00
30158;DHT22;21203;-33.912;151.178;2023-04-03T16:49:02;23.00;81.80
30158;DHT22;21203;-33.912;151.178;2023-04-03T16:51:32;23.00;81.80
30158;DHT22;21203;-33.912;151.178;2023-04-03T16:54:02;23.00;82.10
30158;DHT22;21203;-33.912;151.178;2023-04-03T16:56:32;22.90;82.20
30158;DHT22;21203;-33.912;151.178;2023-04-03T16:59:03;22.90;82.10
30158;DHT22;21203;-33.912;151.178;2023-04-03T17:01:37;22.90;82.00
30158;DHT22;21203;-33.912;151.178;2023-04-03T17:04:09;22.90;81.90
30158;DHT22;21203;-33.912;151.178;2023-04-03T17:06:41;23.00;81.90
30158;DHT22;21203;-33.912;151.178;2023-04-03T17:09:11;22.90;81.70